createdAt,value
2022-12-03T00:01:28.642Z,57.30
2022-12-03T00:03:56.701Z,53.00
2022-12-03T00:06:25.688Z,52.80
2022-12-03T00:08:55.103Z,52.00
2022-12-03T00:11:23.002Z,50.60
2022-12-03T00:13:50.896Z,50.00
2022-12-03T00:16:18.918Z,51.60
2022-12-03T00:18:46.803Z,55.70
2022-12-03T00:21:14.718Z,53.10
2022-12-03T00:23:42.672Z,52.50
2022-12-03T00:26:10.620Z,53.90
2022-12-03T00:28:38.563Z,51.60
2022-12-03T00:31:06.616Z,54.00
2022-12-03T00:33:34.534Z,54.90
2022-12-03T00:36:02.424Z,58.40
2022-12-03T00:38:30.317Z,56.30
2022-12-03T00:40:58.177Z,58.60
2022-12-03T00:43:32.682Z,57.90
2022-12-03T00:48:28.646Z,56.10
2022-12-03T00:50:56.518Z,57.10
2022-12-03T00:53:24.415Z,56.80
2022-12-03T00:55:52.371Z,56.00
2022-12-03T00:58:20.285Z,51.10
2022-12-03T01:00:48.214Z,52.40
2022-12-03T01:03:16.178Z,50.90
2022-12-03T01:05:47.783Z,51.10
2022-12-03T01:08:15.799Z,51.00
2022-12-03T01:10:43.808Z,53.10
2022-12-03T01:13:11.705Z,53.60
2022-12-03T01:15:39.671Z,51.70
2022-12-03T01:18:07.718Z,50.70
2022-12-03T01:20:36.563Z,50.80
2022-12-03T01:23:04.917Z,48.60
2022-12-03T01:25:32.824Z,53.80
2022-12-03T01:28:00.820Z,54.10
2022-12-03T01:30:28.805Z,58.00
2022-12-03T01:32:56.690Z,55.00
2022-12-03T01:35:24.558Z,51.80
2022-12-03T01:37:52.453Z,48.50
2022-12-03T01:40:22.089Z,51.50
2022-12-03T01:42:50.045Z,53.90
2022-12-03T01:45:23.005Z,53.20
2022-12-03T01:47:51.189Z,52.90
2022-12-03T01:50:30.285Z,50.80
2022-12-03T01:53:01.573Z,53.80
2022-12-03T01:55:29.949Z,50.20
2022-12-03T01:58:00.888Z,53.00
2022-12-03T02:00:30.048Z,52.10
2022-12-03T02:03:01.441Z,55.20
2022-12-03T02:05:31.836Z,57.10
2022-12-03T02:08:00.303Z,52.20
2022-12-03T02:10:32.473Z,51.30
2022-12-03T02:13:04.843Z,51.50
2022-12-03T02:15:32.854Z,49.10
2022-12-03T02:18:00.883Z,54.80
2022-12-03T02:20:33.383Z,56.50
2022-12-03T02:23:13.763Z,56.80
2022-12-03T02:25:41.649Z,56.00
2022-12-03T02:28:10.125Z,53.50
2022-12-03T02:30:38.096Z,56.00
2022-12-03T02:33:06.290Z,54.40
2022-12-03T02:35:35.992Z,58.60
2022-12-03T02:38:17.190Z,59.00
2022-12-03T02:40:47.173Z,56.20
2022-12-03T02:43:18.184Z,58.00
2022-12-03T02:45:50.905Z,56.10
2022-12-03T02:48:32.664Z,55.10
2022-12-03T02:51:05.355Z,58.80
2022-12-03T02:53:42.527Z,64.20
2022-12-03T02:56:13.858Z,62.10
2022-12-03T02:58:45.889Z,64.50
2022-12-03T03:01:17.133Z,57.30
2022-12-03T03:03:46.905Z,59.80
2022-12-03T03:06:16.012Z,59.60
2022-12-03T03:08:44.199Z,61.30
2022-12-03T03:11:12.217Z,66.00
2022-12-03T03:13:40.771Z,61.50
2022-12-03T03:16:09.111Z,62.50
2022-12-03T03:18:37.278Z,57.80
2022-12-03T03:21:05.485Z,65.50
2022-12-03T03:23:33.638Z,66.70
2022-12-03T03:26:10.501Z,60.50
2022-12-03T03:28:42.692Z,69.40
2022-12-03T03:31:13.218Z,75.30
2022-12-03T03:33:43.667Z,72.90
2022-12-03T03:36:13.173Z,69.80
2022-12-03T03:38:41.937Z,65.30
2022-12-03T03:41:12.686Z,64.20
2022-12-03T03:43:42.467Z,69.00
2022-12-03T03:46:12.163Z,78.00
2022-12-03T03:48:42.790Z,82.00
2022-12-03T03:51:11.878Z,73.20
2022-12-03T03:53:43.016Z,66.60
2022-12-03T03:56:11.741Z,72.50
2022-12-03T03:58:39.731Z,74.80
2022-12-03T04:01:09.550Z,65.80
2022-12-03T04:03:37.557Z,70.70
2022-12-03T04:06:06.396Z,73.20
2022-12-03T04:08:34.391Z,72.30
2022-12-03T04:11:20.851Z,67.00
2022-12-03T04:13:48.814Z,69.90
2022-12-03T04:16:16.813Z,66.10
2022-12-03T04:18:44.967Z,71.40
2022-12-03T04:21:39.959Z,75.50
2022-12-03T04:24:10.617Z,77.10
2022-12-03T04:26:57.077Z,85.80
2022-12-03T04:29:25.169Z,76.40
2022-12-03T04:32:11.373Z,70.80
2022-12-03T04:34:57.801Z,80.30
2022-12-03T04:37:25.886Z,82.20
2022-12-03T04:39:53.776Z,86.60
2022-12-03T04:42:21.854Z,77.40
2022-12-03T04:44:50.173Z,77.20
2022-12-03T04:47:20.143Z,70.40
2022-12-03T04:49:51.599Z,82.60
2022-12-03T04:52:20.866Z,80.50
2022-12-03T04:54:48.936Z,83.20
2022-12-03T04:57:17.401Z,77.60
2022-12-03T04:59:45.328Z,83.60
2022-12-03T05:02:13.350Z,76.30
2022-12-03T05:04:41.977Z,69.60
2022-12-03T05:07:11.501Z,67.90
2022-12-03T05:09:39.488Z,73.00
2022-12-03T05:12:07.454Z,79.70
2022-12-03T05:14:36.518Z,79.00
2022-12-03T05:17:04.503Z,84.70
2022-12-03T05:19:50.737Z,81.10
2022-12-03T05:22:18.638Z,86.00
2022-12-03T05:24:46.566Z,85.30
2022-12-03T05:27:15.802Z,83.30
2022-12-03T05:29:46.743Z,79.20
2022-12-03T05:32:15.119Z,80.20
2022-12-03T05:34:43.001Z,75.00
2022-12-03T05:37:11.183Z,79.70
2022-12-03T05:39:39.050Z,75.30
2022-12-03T05:42:25.365Z,66.30
2022-12-03T05:44:53.527Z,80.80
2022-12-03T05:47:21.540Z,77.30
2022-12-03T05:49:49.449Z,80.50
2022-12-03T05:52:17.315Z,85.20
2022-12-03T05:54:45.187Z,83.80
2022-12-03T05:57:13.106Z,81.90
2022-12-03T05:59:40.981Z,92.90
2022-12-03T06:02:08.936Z,88.80
2022-12-03T06:04:38.874Z,75.20
2022-12-03T06:07:11.039Z,72.90
2022-12-03T06:09:41.827Z,90.40
2022-12-03T06:12:09.842Z,74.10
2022-12-03T06:14:37.742Z,80.20
2022-12-03T06:17:05.672Z,79.30
2022-12-03T06:19:34.189Z,82.40
2022-12-03T06:22:02.138Z,76.40
2022-12-03T06:24:30.131Z,79.90
2022-12-03T06:26:58.027Z,75.00
2022-12-03T06:29:25.925Z,93.10
2022-12-03T06:31:53.862Z,87.30
2022-12-03T06:34:21.757Z,91.70
2022-12-03T06:36:50.374Z,86.90
2022-12-03T06:39:18.290Z,83.50
2022-12-03T06:41:46.208Z,77.60
2022-12-03T06:44:14.253Z,82.50
2022-12-03T06:46:42.559Z,88.30
2022-12-03T06:49:10.556Z,89.00
2022-12-03T06:51:38.525Z,100.30
2022-12-03T06:54:06.665Z,97.30
2022-12-03T06:56:39.058Z,83.30
2022-12-03T06:59:11.305Z,94.60
2022-12-03T07:01:39.242Z,96.60
2022-12-03T07:04:07.159Z,99.10
2022-12-03T07:06:35.087Z,91.80
2022-12-03T07:09:03.859Z,96.10
2022-12-03T07:11:31.756Z,110.30
2022-12-03T07:14:05.019Z,100.20
2022-12-03T07:16:35.552Z,103.00
2022-12-03T07:19:05.323Z,90.80
2022-12-03T07:21:33.284Z,86.70
2022-12-03T07:24:01.665Z,97.40
2022-12-03T07:26:29.982Z,105.00
2022-12-03T07:28:58.473Z,114.80
2022-12-03T07:31:26.811Z,120.90
2022-12-03T07:33:55.445Z,111.20
2022-12-03T07:36:23.402Z,112.20
2022-12-03T07:38:51.341Z,99.90
2022-12-03T07:41:19.271Z,86.80
2022-12-03T07:43:47.191Z,104.70
2022-12-03T07:46:15.813Z,100.00
2022-12-03T07:48:43.752Z,95.10
2022-12-03T07:51:15.257Z,100.30
2022-12-03T07:53:43.677Z,99.80
2022-12-03T07:56:11.639Z,94.00
2022-12-03T07:58:39.892Z,109.60
2022-12-03T08:01:07.887Z,111.20
2022-12-03T08:03:36.244Z,106.80
2022-12-03T08:06:05.155Z,95.10
2022-12-03T08:08:33.011Z,99.80
2022-12-03T08:11:02.263Z,85.20
2022-12-03T08:13:30.566Z,94.60
2022-12-03T08:16:02.072Z,105.60
2022-12-03T08:18:29.992Z,112.40
2022-12-03T08:20:58.278Z,117.20
2022-12-03T08:23:26.435Z,118.20
2022-12-03T08:25:54.374Z,93.90
2022-12-03T08:28:25.856Z,126.30
2022-12-03T08:31:07.646Z,111.30
2022-12-03T08:33:37.556Z,116.20
2022-12-03T08:40:51.241Z,132.90
2022-12-03T08:43:22.181Z,103.30
2022-12-03T08:45:51.962Z,92.00
2022-12-03T08:48:40.723Z,109.40
2022-12-03T08:51:19.144Z,98.40
2022-12-03T08:53:49.598Z,93.70
2022-12-03T08:56:27.564Z,91.70
2022-12-03T08:59:03.009Z,106.50
2022-12-03T09:01:34.432Z,103.00
2022-12-03T09:04:19.374Z,113.50
2022-12-03T09:09:16.239Z,104.30
2022-12-03T09:11:44.453Z,98.60
2022-12-03T09:14:18.378Z,103.20
2022-12-03T09:16:48.017Z,112.40
2022-12-03T09:19:16.271Z,117.10
2022-12-03T09:21:44.819Z,131.60
2022-12-03T09:24:12.732Z,122.50
2022-12-03T09:26:40.643Z,123.30
2022-12-03T09:29:12.163Z,131.70
2022-12-03T09:31:41.259Z,134.80
2022-12-03T09:34:10.010Z,127.70
2022-12-03T09:36:38.040Z,128.00
2022-12-03T09:39:06.806Z,123.90
2022-12-03T09:41:34.957Z,109.90
2022-12-03T09:44:04.450Z,97.60
2022-12-03T09:46:36.215Z,124.20
2022-12-03T09:49:12.360Z,138.00
2022-12-03T09:51:45.121Z,106.60
2022-12-03T09:54:26.409Z,96.20
2022-12-03T09:56:56.141Z,94.80
2022-12-03T09:59:27.840Z,106.40
2022-12-03T10:01:56.170Z,79.90
2022-12-03T10:04:24.691Z,84.30
2022-12-03T10:06:52.733Z,93.10
2022-12-03T10:09:28.986Z,104.80
2022-12-03T10:11:59.109Z,112.00
2022-12-03T10:14:27.929Z,116.90
2022-12-03T10:16:56.648Z,102.00
2022-12-03T10:19:27.528Z,113.50
2022-12-03T10:21:55.873Z,124.10
2022-12-03T10:24:32.426Z,119.80
2022-12-03T10:27:03.166Z,105.40
2022-12-03T10:29:37.258Z,94.20
2022-12-03T10:32:10.500Z,90.20
2022-12-03T10:34:40.428Z,96.90
2022-12-03T10:37:11.254Z,95.60
2022-12-03T10:39:59.313Z,72.30
2022-12-03T10:42:30.584Z,95.10
2022-12-03T10:45:14.535Z,101.30
2022-12-03T10:47:44.186Z,94.20
2022-12-03T10:50:19.623Z,94.40
2022-12-03T10:52:48.070Z,88.90
2022-12-03T10:55:16.393Z,98.10
2022-12-03T10:57:46.380Z,97.40
2022-12-03T11:00:19.672Z,101.60
2022-12-03T11:02:56.127Z,109.60
2022-12-03T11:05:27.539Z,91.60
2022-12-03T11:07:56.221Z,100.30
2022-12-03T11:10:25.104Z,117.20
2022-12-03T11:13:36.732Z,97.00
2022-12-03T11:16:10.846Z,125.20
2022-12-03T11:18:38.833Z,96.60
2022-12-03T11:21:08.601Z,124.10
2022-12-03T11:23:45.562Z,97.20
2022-12-03T11:26:18.812Z,90.90
2022-12-03T11:28:47.677Z,92.90
2022-12-03T11:31:47.802Z,93.00
2022-12-03T11:34:18.940Z,92.20
2022-12-03T11:37:11.559Z,115.10
2022-12-03T11:39:48.152Z,90.70
2022-12-03T11:42:25.682Z,88.80
2022-12-03T11:45:02.915Z,92.00
2022-12-03T11:47:42.135Z,98.40
2022-12-03T11:50:28.304Z,110.70
2022-12-03T11:53:08.761Z,112.00
2022-12-03T11:55:40.267Z,109.40
2022-12-03T11:58:24.710Z,113.10
2022-12-03T12:00:56.500Z,111.60
2022-12-03T12:03:27.976Z,123.10
2022-12-03T12:06:11.245Z,147.30
2022-12-03T12:08:42.103Z,138.70
2022-12-03T12:11:33.324Z,124.80
2022-12-03T12:14:06.227Z,132.70
2022-12-03T12:16:43.277Z,113.20
2022-12-03T12:19:40.145Z,137.10
2022-12-03T12:22:13.972Z,150.60
2022-12-03T12:24:47.095Z,156.80
2022-12-03T12:27:19.809Z,144.70
2022-12-03T12:29:56.778Z,128.70
2022-12-03T12:32:45.916Z,124.80
2022-12-03T12:35:14.511Z,120.90
2022-12-03T12:38:00.185Z,130.20
2022-12-03T12:40:30.767Z,112.80
2022-12-03T12:43:12.027Z,134.40
2022-12-03T12:45:43.446Z,126.90
2022-12-03T12:48:41.011Z,131.40
2022-12-03T12:51:19.723Z,126.50
2022-12-03T12:53:48.997Z,112.90
2022-12-03T12:56:27.390Z,125.20
2022-12-03T12:58:59.383Z,134.20
2022-12-03T13:01:30.919Z,149.50
2022-12-03T13:03:59.646Z,141.30
2022-12-03T13:06:35.316Z,158.40
2022-12-03T13:09:03.316Z,136.80
2022-12-03T13:11:37.125Z,123.60
2022-12-03T13:14:20.268Z,139.10
2022-12-03T13:16:50.670Z,143.90
2022-12-03T13:19:27.143Z,151.20
2022-12-03T13:21:57.576Z,131.90
2022-12-03T13:24:34.478Z,127.10
2022-12-03T13:27:20.616Z,139.70
2022-12-03T13:29:57.021Z,152.30
2022-12-03T13:32:32.484Z,141.40
2022-12-03T13:35:30.659Z,141.00
2022-12-03T13:37:59.331Z,135.70
2022-12-03T13:40:31.556Z,138.30
2022-12-03T13:43:19.367Z,118.20
2022-12-03T13:45:50.075Z,106.50
2022-12-03T13:48:34.778Z,119.00
2022-12-03T13:51:19.695Z,115.60
2022-12-03T13:56:28.813Z,130.80
2022-12-03T13:59:00.157Z,127.00
2022-12-03T14:01:29.016Z,110.70
2022-12-03T14:03:57.100Z,102.40
2022-12-03T14:06:25.037Z,112.30
2022-12-03T14:08:53.057Z,103.30
2022-12-03T14:11:39.381Z,111.50
2022-12-03T14:14:07.423Z,102.90
2022-12-03T14:16:35.410Z,135.30
2022-12-03T14:19:03.657Z,116.30
2022-12-03T14:21:31.595Z,89.20
2022-12-03T14:23:59.480Z,97.50
2022-12-03T14:26:27.335Z,90.70
2022-12-03T14:29:04.682Z,153.60
2022-12-03T14:31:35.226Z,150.70
2022-12-03T14:34:03.213Z,143.80
2022-12-03T14:36:31.083Z,118.70
2022-12-03T14:38:59.075Z,112.90
2022-12-03T14:41:45.502Z,110.70
2022-12-03T14:44:13.422Z,117.10
2022-12-03T14:46:41.656Z,113.10
2022-12-03T14:49:09.586Z,124.30
2022-12-03T14:51:37.492Z,116.50
2022-12-03T14:54:06.384Z,100.20
2022-12-03T14:56:34.261Z,100.40
2022-12-03T14:59:02.321Z,115.50
2022-12-03T15:01:30.411Z,126.60
2022-12-03T15:03:58.324Z,116.20
2022-12-03T15:06:26.248Z,104.70
2022-12-03T15:08:54.279Z,98.40
2022-12-03T15:11:22.339Z,109.40
2022-12-03T15:13:50.225Z,86.50
2022-12-03T15:16:18.123Z,100.60
2022-12-03T15:18:46.773Z,110.20
2022-12-03T15:21:14.689Z,110.90
2022-12-03T15:23:42.653Z,95.30
2022-12-03T15:26:10.658Z,98.70
2022-12-03T15:28:38.568Z,113.60
2022-12-03T15:31:06.518Z,97.00
2022-12-03T15:33:34.467Z,107.30
2022-12-03T15:36:02.398Z,99.10
2022-12-03T15:38:30.356Z,125.00
2022-12-03T15:40:58.356Z,124.10
2022-12-03T15:43:26.253Z,97.90
2022-12-03T15:45:54.582Z,103.70
2022-12-03T15:48:22.602Z,97.90
2022-12-03T15:50:50.467Z,85.50
2022-12-03T15:53:18.575Z,127.90
2022-12-03T15:55:47.213Z,111.30
2022-12-03T15:58:15.139Z,109.90
2022-12-03T16:00:43.022Z,89.20
2022-12-03T16:03:10.979Z,81.10
2022-12-03T16:05:38.952Z,83.70
2022-12-03T16:08:07.280Z,85.40
2022-12-03T16:10:35.243Z,106.30
2022-12-03T16:13:03.139Z,121.90
2022-12-03T16:15:31.177Z,96.20
2022-12-03T16:17:59.359Z,96.70
2022-12-03T16:20:27.540Z,95.60
2022-12-03T16:22:55.533Z,119.90
2022-12-03T16:25:23.429Z,111.20
2022-12-03T16:27:51.372Z,100.40
2022-12-03T16:30:19.303Z,112.90
2022-12-03T16:32:47.239Z,126.80
2022-12-03T16:35:15.144Z,101.20
2022-12-03T16:37:43.089Z,90.60
2022-12-03T16:40:11.649Z,76.00
2022-12-03T16:42:39.745Z,92.50
2022-12-03T16:45:08.755Z,80.50
2022-12-03T16:47:36.909Z,84.60
2022-12-03T16:50:07.747Z,83.50
2022-12-03T16:53:25.460Z,72.60
2022-12-03T16:55:53.374Z,76.00
2022-12-03T16:58:21.634Z,69.50
2022-12-03T17:00:53.404Z,70.50
2022-12-03T17:03:22.841Z,76.50
2022-12-03T17:05:54.833Z,72.80
2022-12-03T17:08:25.084Z,73.00
2022-12-03T17:10:53.015Z,71.50
2022-12-03T17:13:23.261Z,70.10
2022-12-03T17:15:51.340Z,75.70
2022-12-03T17:18:19.292Z,100.40
2022-12-03T17:20:47.272Z,89.30
2022-12-03T17:23:15.526Z,81.90
2022-12-03T17:25:43.588Z,85.40
2022-12-03T17:28:11.528Z,72.40
2022-12-03T17:30:39.530Z,70.20
2022-12-03T17:33:07.448Z,80.40
2022-12-03T17:35:35.322Z,70.30
2022-12-03T17:38:03.390Z,71.20
2022-12-03T17:40:31.415Z,69.50
2022-12-03T17:42:59.318Z,72.10
2022-12-03T17:45:27.208Z,73.10
2022-12-03T17:47:55.293Z,67.30
2022-12-03T17:50:25.818Z,70.30
2022-12-03T17:52:53.770Z,71.10
2022-12-03T17:55:33.866Z,70.00
2022-12-03T17:58:06.770Z,66.20
2022-12-03T18:00:34.834Z,71.80
2022-12-03T18:03:02.750Z,69.60
2022-12-03T18:05:30.612Z,68.40
2022-12-03T18:07:58.580Z,74.10
2022-12-03T18:10:28.795Z,69.70
2022-12-03T18:13:01.481Z,72.70
2022-12-03T18:15:30.962Z,74.60
2022-12-03T18:17:58.857Z,76.80
2022-12-03T18:20:26.870Z,75.50
2022-12-03T18:22:54.843Z,75.20
2022-12-03T18:25:22.835Z,81.40
2022-12-03T18:27:50.736Z,82.00
2022-12-03T18:30:20.883Z,81.80
2022-12-03T18:32:49.742Z,74.60
2022-12-03T18:35:18.119Z,73.10
2022-12-03T18:37:46.291Z,74.70
2022-12-03T18:40:20.182Z,71.80
2022-12-03T18:42:48.240Z,77.00
2022-12-03T18:45:18.961Z,79.70
2022-12-03T18:47:47.006Z,77.10
2022-12-03T18:50:15.008Z,73.20
2022-12-03T18:52:43.145Z,71.20
2022-12-03T18:55:17.916Z,69.30
2022-12-03T18:57:45.898Z,83.00
2022-12-03T19:00:14.874Z,83.90
2022-12-03T19:03:12.771Z,83.20
2022-12-03T19:05:40.823Z,67.60
2022-12-03T19:08:14.610Z,89.10
2022-12-03T19:10:45.686Z,74.30
2022-12-03T19:13:13.569Z,74.90
2022-12-03T19:15:41.515Z,71.10
2022-12-03T19:18:09.499Z,72.20
2022-12-03T19:20:40.509Z,66.30
2022-12-03T19:23:09.112Z,72.20
2022-12-03T19:25:39.683Z,78.50
2022-12-03T19:28:08.079Z,72.50
2022-12-03T19:30:36.068Z,72.70
2022-12-03T19:33:04.102Z,70.80
2022-12-03T19:35:41.613Z,67.50
2022-12-03T19:38:09.552Z,71.00
2022-12-03T19:40:37.542Z,69.50
2022-12-03T19:43:05.490Z,68.80
2022-12-03T19:45:36.541Z,64.90
2022-12-03T19:48:04.614Z,67.00
2022-12-03T19:50:34.112Z,69.50
2022-12-03T19:53:02.067Z,71.80
2022-12-03T19:55:29.984Z,69.20
2022-12-03T19:58:00.546Z,68.20
2022-12-03T20:00:28.480Z,71.10
2022-12-03T20:02:58.721Z,72.60
2022-12-03T20:05:31.765Z,71.20
2022-12-03T20:10:29.090Z,67.40
2022-12-03T20:12:57.014Z,81.10
2022-12-03T20:15:25.227Z,88.20
2022-12-03T20:17:53.497Z,75.00
2022-12-03T20:20:23.863Z,74.20
2022-12-03T20:22:51.859Z,80.80
2022-12-03T20:25:19.869Z,71.70
2022-12-03T20:27:47.834Z,69.30
2022-12-03T20:30:15.834Z,75.90
2022-12-03T20:32:45.678Z,75.50
2022-12-03T20:35:13.767Z,85.10
2022-12-03T20:37:41.749Z,69.20
2022-12-03T20:40:10.195Z,70.90
2022-12-03T20:42:41.277Z,69.60
2022-12-03T20:45:09.900Z,72.50
2022-12-03T20:47:39.075Z,69.40
2022-12-03T20:50:07.907Z,86.30
2022-12-03T20:52:38.093Z,68.30
2022-12-03T20:55:06.521Z,73.90
2022-12-03T20:57:37.477Z,67.30
2022-12-03T21:00:08.488Z,64.80
2022-12-03T21:02:37.557Z,68.60
2022-12-03T21:05:06.082Z,71.20
2022-12-03T21:07:34.132Z,81.90
2022-12-03T21:10:02.948Z,77.90
2022-12-03T21:12:30.887Z,71.00
2022-12-03T21:14:58.765Z,67.70
2022-12-03T21:17:29.655Z,63.30
2022-12-03T21:19:57.744Z,63.60
2022-12-03T21:22:25.839Z,62.90
2022-12-03T21:24:53.865Z,61.70
2022-12-03T21:27:22.126Z,66.40
2022-12-03T21:29:50.398Z,70.70
2022-12-03T21:32:20.873Z,70.70
2022-12-03T21:34:48.817Z,69.00
2022-12-03T21:37:17.041Z,64.90
2022-12-03T21:39:45.791Z,65.90
2022-12-03T21:42:34.558Z,66.40
2022-12-03T21:45:01.642Z,68.50
2022-12-03T21:47:36.379Z,73.30
2022-12-03T21:50:09.623Z,76.80
2022-12-03T21:52:37.554Z,76.90
2022-12-03T21:55:09.389Z,82.10
2022-12-03T21:57:37.823Z,70.00
2022-12-03T22:00:09.296Z,69.80
2022-12-03T22:02:40.761Z,67.40
2022-12-03T22:05:10.519Z,70.30
2022-12-03T22:07:42.209Z,70.00
2022-12-03T22:10:13.348Z,74.40
2022-12-03T22:14:01.472Z,77.40
2022-12-03T22:16:54.456Z,84.50
2022-12-03T22:21:53.331Z,77.60
2022-12-03T22:24:23.461Z,74.60
2022-12-03T22:26:53.570Z,77.50
2022-12-03T22:29:23.739Z,71.30
2022-12-03T22:31:51.867Z,78.80
2022-12-03T22:34:22.584Z,80.70
2022-12-03T22:36:50.456Z,78.20
2022-12-03T22:39:18.369Z,73.20
2022-12-03T22:41:47.765Z,73.40
2022-12-03T22:44:15.848Z,75.30
2022-12-03T22:46:43.864Z,74.20
2022-12-03T22:49:12.993Z,85.80
2022-12-03T22:51:46.792Z,83.40
2022-12-03T22:54:23.563Z,81.00
2022-12-03T22:59:21.915Z,81.40
2022-12-03T23:01:49.825Z,75.70
2022-12-03T23:04:19.851Z,78.30
2022-12-03T23:06:50.214Z,76.80
2022-12-03T23:09:18.189Z,72.60
2022-12-03T23:11:48.443Z,75.10
2022-12-03T23:14:16.324Z,80.70
2022-12-03T23:17:59.233Z,75.30
2022-12-03T23:20:29.748Z,88.60
2022-12-03T23:22:57.614Z,100.80
2022-12-03T23:25:25.536Z,89.20
2022-12-03T23:27:53.415Z,82.20
2022-12-03T23:30:21.382Z,69.70
2022-12-03T23:32:49.391Z,69.50
2022-12-03T23:35:17.443Z,71.40
2022-12-03T23:37:45.394Z,68.40
2022-12-03T23:40:13.875Z,69.80
2022-12-03T23:42:41.725Z,66.80
2022-12-03T23:45:10.015Z,60.20
2022-12-03T23:47:37.863Z,59.20
2022-12-03T23:50:06.397Z,57.00
2022-12-03T23:52:36.242Z,58.50
2022-12-03T23:55:04.492Z,60.80
2022-12-03T23:57:32.551Z,62.70
